EDDL

Düsseldorf International Airport

Düsseldorf, Germany
METAR EDDL 251850Z 08004KT CAVOK 09/05 Q1037 NOSIG
Observed Flight Rules
Sep-25 @ 18:50 UTC (13 minutes ago) Visual Flight Rules
Wind Visibility Clouds
80° at 4 knots 10,000+ meters
  • Clear skies
Temperatures Readings
Current 9°C / 48°F
Dewpoint 5°C / 41°F
Humidity 76%
Altimeter 30.62" Hg
Pressure 1037 hPa
Elevation 44
METAR EDDL 251850Z 08004KT CAVOK 09/05 Q1037 NOSIG
Observed Flight Rules
Sep-25 @ 18:50 UTC
(13 minutes ago)
VFR
Wind Visibility
80° at 4 knots 10,000+ meters
Clouds
  • Clear skies
Temperature Dewpoint
9°C / 48°F 5°C / 41°F
Humidity Altimeter Pressure
76% 30.62" Hg 1037 hPa